createdAt,value
2023-04-28T00:00:23.982Z,10.50
2023-04-28T00:03:28.545Z,10.02
2023-04-28T00:06:31.320Z,11.32
2023-04-28T00:09:33.982Z,8.93
2023-04-28T00:12:36.522Z,9.67
2023-04-28T00:15:39.019Z,11.40
2023-04-28T00:18:41.745Z,8.25
2023-04-28T00:21:44.320Z,8.85
2023-04-28T00:24:46.869Z,13.82
2023-04-28T00:27:49.346Z,11.27
2023-04-28T00:30:51.927Z,8.13
2023-04-28T00:33:54.542Z,10.85
2023-04-28T00:36:57.650Z,12.88
2023-04-28T00:40:00.229Z,13.33
2023-04-28T00:43:03.074Z,8.70
2023-04-28T00:46:05.682Z,13.75
2023-04-28T00:49:08.401Z,7.13
2023-04-28T00:52:11.369Z,7.97
2023-04-28T00:55:16.191Z,6.93
2023-04-28T00:58:19.547Z,7.57
2023-04-28T01:01:22.600Z,8.85
2023-04-28T01:04:27.017Z,14.48
2023-04-28T01:07:30.197Z,15.13
2023-04-28T01:10:33.115Z,17.70
2023-04-28T01:13:42.689Z,14.93
2023-04-28T01:16:45.408Z,15.80
2023-04-28T01:19:48.092Z,19.70
2023-04-28T01:22:50.776Z,18.30
2023-04-28T01:25:53.778Z,15.15
2023-04-28T01:28:56.256Z,13.40
2023-04-28T01:31:59.184Z,15.00
2023-04-28T01:35:01.738Z,16.42
2023-04-28T01:38:04.322Z,16.60
2023-04-28T01:41:07.475Z,16.17
2023-04-28T01:44:10.028Z,8.80
2023-04-28T01:47:12.593Z,15.45
2023-04-28T01:50:15.155Z,12.05
2023-04-28T01:53:20.681Z,14.40
2023-04-28T01:56:23.727Z,10.27
2023-04-28T01:59:27.971Z,11.90
2023-04-28T02:02:31.071Z,11.63
2023-04-28T02:05:33.685Z,11.07
2023-04-28T02:08:36.605Z,12.88
2023-04-28T02:11:39.193Z,9.45
2023-04-28T02:14:41.662Z,13.25
2023-04-28T02:17:44.351Z,14.60
2023-04-28T02:20:46.970Z,12.65
2023-04-28T02:23:50.542Z,11.63
2023-04-28T02:26:53.749Z,12.50
2023-04-28T02:29:56.205Z,11.57
2023-04-28T02:32:58.701Z,17.10
2023-04-28T02:36:03.104Z,14.73
2023-04-28T02:39:05.681Z,11.82
2023-04-28T02:42:09.539Z,13.23
2023-04-28T02:45:12.104Z,13.98
2023-04-28T02:48:16.050Z,10.77
2023-04-28T02:51:18.520Z,14.33
2023-04-28T02:54:27.617Z,15.50
2023-04-28T02:57:31.391Z,13.43
2023-04-28T03:00:34.078Z,13.45
2023-04-28T03:03:37.284Z,17.87
2023-04-28T03:06:40.100Z,15.80
2023-04-28T03:09:43.092Z,17.75
2023-04-28T03:12:46.022Z,19.98
2023-04-28T03:15:48.573Z,13.87
2023-04-28T03:18:51.256Z,13.50
2023-04-28T03:21:55.198Z,15.95
2023-04-28T03:24:57.754Z,18.13
2023-04-28T03:28:01.710Z,14.93
2023-04-28T03:31:04.512Z,15.18
2023-04-28T03:34:07.526Z,19.13
2023-04-28T03:37:10.275Z,17.92
2023-04-28T03:40:13.317Z,17.00
2023-04-28T03:43:37.381Z,14.50
2023-04-28T03:47:09.248Z,17.83
2023-04-28T03:50:12.713Z,14.13
2023-04-28T03:53:15.227Z,14.23
2023-04-28T03:56:17.959Z,13.43
2023-04-28T03:59:21.126Z,14.07
2023-04-28T04:02:25.159Z,13.30
2023-04-28T04:05:27.815Z,15.07
2023-04-28T04:08:30.701Z,11.93
2023-04-28T04:11:33.247Z,10.80
2023-04-28T04:14:35.971Z,16.75
2023-04-28T04:17:38.720Z,13.33
2023-04-28T04:20:41.469Z,13.95
2023-04-28T04:23:44.198Z,14.57
2023-04-28T04:26:47.836Z,15.53
2023-04-28T04:30:19.523Z,16.10
2023-04-28T04:33:22.115Z,17.42
2023-04-28T04:36:25.409Z,13.77
2023-04-28T04:39:28.460Z,12.80
2023-04-28T04:42:31.114Z,14.53
2023-04-28T04:45:42.649Z,16.98
2023-04-28T04:48:45.512Z,11.95
2023-04-28T04:51:48.577Z,16.02
2023-04-28T04:54:51.897Z,18.80
2023-04-28T04:57:55.154Z,12.23
2023-04-28T05:01:21.308Z,10.73
2023-04-28T05:04:24.266Z,13.15
2023-04-28T05:07:27.042Z,10.33
2023-04-28T05:10:29.934Z,10.57
2023-04-28T05:13:32.622Z,12.35
2023-04-28T05:16:39.078Z,12.00
2023-04-28T05:19:52.758Z,15.25
2023-04-28T05:22:55.738Z,8.67
2023-04-28T05:25:58.754Z,11.57
2023-04-28T05:29:01.589Z,8.48
2023-04-28T05:32:04.725Z,10.88
2023-04-28T05:35:07.721Z,11.65
2023-04-28T05:38:10.339Z,9.37
2023-04-28T05:41:12.865Z,14.77
2023-04-28T05:44:16.773Z,9.20
2023-04-28T05:47:19.545Z,11.40
2023-04-28T05:50:23.797Z,8.80
2023-04-28T05:53:27.169Z,8.27
2023-04-28T05:56:29.877Z,7.23
2023-04-28T05:59:33.907Z,11.82
2023-04-28T06:02:36.829Z,9.60
2023-04-28T06:05:39.655Z,9.07
2023-04-28T06:08:43.750Z,11.75
2023-04-28T06:11:46.424Z,10.25
2023-04-28T06:14:49.159Z,8.68
2023-04-28T06:17:51.974Z,7.07
2023-04-28T06:20:54.642Z,7.43
2023-04-28T06:23:57.418Z,8.30
2023-04-28T06:27:03.088Z,9.93
2023-04-28T06:30:06.476Z,10.65
2023-04-28T06:33:09.481Z,8.80
2023-04-28T06:36:16.924Z,11.00
2023-04-28T06:39:19.746Z,6.65
2023-04-28T06:42:22.452Z,9.95
2023-04-28T06:45:34.205Z,7.55
2023-04-28T06:48:37.102Z,8.63
2023-04-28T06:51:39.807Z,10.83
2023-04-28T06:54:42.542Z,7.90
2023-04-28T06:57:45.603Z,8.63
2023-04-28T07:00:48.428Z,14.50
2023-04-28T07:03:51.035Z,16.00
2023-04-28T07:06:54.347Z,9.40
2023-04-28T07:10:01.334Z,13.88
2023-04-28T07:13:04.025Z,8.32
2023-04-28T07:16:06.954Z,9.15
2023-04-28T07:19:09.658Z,11.03
2023-04-28T07:22:12.268Z,14.10
2023-04-28T07:25:15.651Z,11.73
2023-04-28T07:28:18.497Z,7.50
2023-04-28T07:31:21.938Z,11.02
2023-04-28T07:34:24.595Z,7.57
2023-04-28T07:37:27.400Z,11.13
2023-04-28T07:40:30.042Z,9.30
2023-04-28T07:43:32.633Z,8.15
2023-04-28T07:46:35.535Z,6.80
2023-04-28T07:49:38.075Z,12.90
2023-04-28T07:52:40.754Z,8.87
2023-04-28T07:55:44.764Z,11.15
2023-04-28T07:58:47.593Z,12.95
2023-04-28T08:01:50.170Z,9.15
2023-04-28T08:04:53.183Z,10.57
2023-04-28T08:07:56.011Z,10.63
2023-04-28T08:10:59.229Z,8.60
2023-04-28T08:14:03.409Z,6.40
2023-04-28T08:17:06.316Z,8.45
2023-04-28T08:20:09.563Z,8.13
2023-04-28T08:23:12.289Z,8.27
2023-04-28T08:26:15.010Z,6.78
2023-04-28T08:29:17.957Z,6.68
2023-04-28T08:32:20.562Z,6.50
2023-04-28T08:35:23.434Z,8.60
2023-04-28T08:38:27.040Z,5.30
2023-04-28T08:41:33.201Z,7.93
2023-04-28T08:44:40.765Z,9.48
2023-04-28T08:47:47.894Z,4.40
2023-04-28T08:50:52.896Z,5.93
2023-04-28T08:57:09.811Z,4.97
2023-04-28T09:00:16.108Z,5.38
2023-04-28T09:03:21.157Z,6.43
2023-04-28T09:06:24.148Z,10.03
2023-04-28T09:09:32.675Z,6.97
2023-04-28T09:12:38.053Z,7.20
2023-04-28T09:15:41.619Z,4.85
2023-04-28T09:18:57.494Z,7.50
2023-04-28T09:22:05.557Z,5.60
2023-04-28T09:25:11.872Z,10.70
2023-04-28T09:28:22.235Z,5.88
2023-04-28T09:31:28.218Z,5.43
2023-04-28T09:34:46.629Z,6.45
2023-04-28T09:37:58.822Z,9.17
2023-04-28T09:41:03.149Z,6.93
2023-04-28T09:44:17.356Z,5.97
2023-04-28T09:47:25.078Z,6.15
2023-04-28T09:50:54.578Z,5.32
2023-04-28T09:54:14.726Z,6.40
2023-04-28T09:57:21.378Z,7.57
2023-04-28T10:00:24.455Z,6.03
2023-04-28T10:03:31.509Z,4.30
2023-04-28T10:06:36.797Z,7.95
2023-04-28T10:09:39.667Z,5.60
2023-04-28T10:12:42.634Z,6.60
2023-04-28T10:15:48.210Z,9.05
2023-04-28T10:18:54.216Z,5.85
2023-04-28T10:22:15.481Z,6.05
2023-04-28T10:25:30.092Z,10.50
2023-04-28T10:28:33.728Z,6.13
2023-04-28T10:31:37.156Z,6.88
2023-04-28T10:34:40.163Z,6.00
2023-04-28T10:38:14.589Z,8.52
2023-04-28T10:41:34.802Z,5.73
2023-04-28T10:44:37.379Z,7.50
2023-04-28T10:48:06.379Z,7.72
2023-04-28T10:51:15.144Z,5.45
2023-04-28T10:54:19.420Z,7.60
2023-04-28T10:57:23.000Z,10.87
2023-04-28T11:00:30.920Z,11.83
2023-04-28T11:03:52.380Z,9.80
2023-04-28T11:07:13.957Z,7.55
2023-04-28T11:10:16.775Z,7.35
2023-04-28T11:13:33.964Z,8.63
2023-04-28T11:16:55.600Z,5.57
2023-04-28T11:20:00.347Z,7.63
2023-04-28T11:23:04.709Z,5.93
2023-04-28T11:26:07.382Z,4.13
2023-04-28T11:29:11.259Z,11.00
2023-04-28T11:32:14.142Z,4.27
2023-04-28T11:35:16.752Z,9.18
2023-04-28T11:38:19.674Z,4.75
2023-04-28T11:41:23.343Z,7.97
2023-04-28T11:44:28.575Z,8.00
2023-04-28T11:47:33.604Z,11.37
2023-04-28T11:50:37.769Z,11.63
2023-04-28T11:53:44.538Z,8.85
2023-04-28T11:56:47.971Z,7.75
2023-04-28T11:59:51.405Z,6.10
2023-04-28T12:02:54.229Z,5.77
2023-04-28T12:05:57.405Z,5.22
2023-04-28T12:09:04.514Z,9.98
2023-04-28T12:12:10.134Z,5.70
2023-04-28T12:15:12.755Z,6.83
2023-04-28T12:18:19.516Z,5.40
2023-04-28T12:21:22.532Z,5.75
2023-04-28T12:24:27.385Z,6.03
2023-04-28T12:27:30.722Z,6.50
2023-04-28T12:30:35.987Z,5.03
2023-04-28T12:33:39.615Z,4.80
2023-04-28T12:36:42.260Z,6.25
2023-04-28T12:39:45.373Z,7.53
2023-04-28T12:42:50.273Z,9.65
2023-04-28T12:45:55.243Z,5.37
2023-04-28T12:48:58.267Z,9.17
2023-04-28T12:52:02.090Z,5.18
2023-04-28T12:55:07.161Z,4.72
2023-04-28T12:58:10.395Z,4.05
2023-04-28T13:01:15.617Z,5.23
2023-04-28T13:04:19.693Z,6.97
2023-04-28T13:07:22.931Z,4.63
2023-04-28T13:10:26.687Z,6.00
2023-04-28T13:13:29.233Z,9.40
2023-04-28T13:16:32.180Z,4.97
2023-04-28T13:19:35.137Z,5.27
2023-04-28T13:22:38.224Z,5.45
2023-04-28T13:25:41.300Z,4.75
2023-04-28T13:28:44.210Z,5.03
2023-04-28T13:31:47.086Z,7.50
2023-04-28T13:34:49.681Z,3.23
2023-04-28T13:37:56.647Z,8.13
2023-04-28T13:40:59.263Z,4.60
2023-04-28T13:44:02.183Z,5.78
2023-04-28T13:47:09.211Z,8.47
2023-04-28T13:50:11.864Z,5.47
2023-04-28T13:53:15.522Z,5.55
2023-04-28T13:56:18.220Z,4.60
2023-04-28T13:59:21.952Z,6.15
2023-04-28T14:02:27.983Z,6.80
2023-04-28T14:05:42.036Z,5.07
2023-04-28T14:08:51.334Z,5.03
2023-04-28T14:11:56.708Z,3.47
2023-04-28T14:14:59.257Z,6.75
2023-04-28T14:18:02.892Z,6.80
2023-04-28T14:21:08.519Z,7.33
2023-04-28T14:24:11.800Z,3.35
2023-04-28T14:27:15.762Z,5.35
2023-04-28T14:30:19.939Z,5.70
2023-04-28T14:33:22.563Z,5.60
2023-04-28T14:36:25.392Z,5.50
2023-04-28T14:39:28.017Z,4.70
2023-04-28T14:42:33.220Z,10.02
2023-04-28T14:45:37.244Z,4.88
2023-04-28T14:48:39.846Z,4.30
2023-04-28T14:51:42.662Z,7.93
2023-04-28T14:54:45.534Z,5.38
2023-04-28T14:57:48.750Z,6.47
2023-04-28T15:00:53.272Z,4.72
2023-04-28T15:03:56.023Z,5.30
2023-04-28T15:06:59.816Z,2.93
2023-04-28T15:10:02.391Z,4.68
2023-04-28T15:13:05.170Z,4.35
2023-04-28T15:16:08.061Z,6.90
2023-04-28T15:19:11.334Z,6.33
2023-04-28T15:22:14.197Z,7.17
2023-04-28T15:25:16.860Z,4.57
2023-04-28T15:28:20.292Z,6.15
2023-04-28T15:31:26.002Z,5.93
2023-04-28T15:34:28.702Z,4.67
2023-04-28T15:37:39.475Z,8.40
2023-04-28T15:40:42.693Z,6.20
2023-04-28T15:43:46.176Z,7.35
2023-04-28T15:46:48.725Z,5.70
2023-04-28T15:49:51.422Z,6.43
2023-04-28T15:52:54.061Z,6.70
2023-04-28T15:55:57.582Z,8.43
2023-04-28T15:59:00.268Z,10.32
2023-04-28T16:02:03.124Z,6.25
2023-04-28T16:05:05.941Z,12.80
2023-04-28T16:08:09.069Z,6.63
2023-04-28T16:11:19.454Z,5.88
2023-04-28T16:14:22.020Z,5.28
2023-04-28T16:17:24.796Z,11.32
2023-04-28T16:20:27.471Z,5.90
2023-04-28T16:23:30.162Z,8.07
2023-04-28T16:26:32.921Z,8.63
2023-04-28T16:29:35.954Z,6.25
2023-04-28T16:32:38.815Z,7.03
2023-04-28T16:35:41.485Z,7.13
2023-04-28T16:38:46.146Z,4.90
2023-04-28T16:41:49.322Z,7.28
2023-04-28T16:44:53.078Z,9.30
2023-04-28T16:47:55.998Z,11.32
2023-04-28T16:50:58.608Z,21.50
2023-04-28T16:54:02.302Z,23.70
2023-04-28T16:57:05.047Z,25.05
2023-04-28T17:00:08.612Z,24.55
2023-04-28T17:03:11.716Z,24.05
2023-04-28T17:06:14.316Z,24.47
2023-04-28T17:09:18.239Z,25.37
2023-04-28T17:12:23.339Z,19.48
2023-04-28T17:15:27.241Z,18.30
2023-04-28T17:18:29.922Z,19.45
2023-04-28T17:21:33.756Z,18.30
2023-04-28T17:24:36.297Z,20.13
2023-04-28T17:27:39.089Z,20.50
2023-04-28T17:30:43.916Z,20.55
2023-04-28T17:33:53.457Z,22.40
2023-04-28T17:36:56.341Z,20.10
2023-04-28T17:39:59.299Z,22.27
2023-04-28T17:43:02.674Z,16.90
2023-04-28T17:46:05.314Z,17.42
2023-04-28T17:49:07.957Z,16.38
2023-04-28T17:52:10.692Z,15.80
2023-04-28T17:55:14.242Z,12.73
2023-04-28T17:58:16.885Z,13.05
2023-04-28T18:01:19.576Z,12.73
2023-04-28T18:04:22.648Z,15.00
2023-04-28T18:07:25.941Z,14.67
2023-04-28T18:10:29.594Z,12.47
2023-04-28T18:13:33.609Z,11.52
2023-04-28T18:16:36.327Z,14.98
2023-04-28T18:19:38.938Z,15.40
2023-04-28T18:22:41.680Z,17.67
2023-04-28T18:25:44.451Z,10.07
2023-04-28T18:28:49.912Z,13.88
2023-04-28T18:31:52.515Z,14.77
2023-04-28T18:34:55.344Z,10.35
2023-04-28T18:37:58.045Z,10.40
2023-04-28T18:41:02.198Z,10.80
2023-04-28T18:44:05.330Z,13.10
2023-04-28T18:47:08.418Z,19.60
2023-04-28T18:50:11.779Z,14.95
2023-04-28T18:53:14.695Z,12.30
2023-04-28T18:56:17.551Z,14.77
2023-04-28T18:59:20.254Z,13.23
2023-04-28T19:02:23.731Z,13.38
2023-04-28T19:05:26.591Z,14.10
2023-04-28T19:08:29.072Z,15.20
2023-04-28T19:11:32.039Z,16.20
2023-04-28T19:14:36.015Z,13.25
2023-04-28T19:17:39.590Z,13.07
2023-04-28T19:20:42.775Z,16.27
2023-04-28T19:23:46.311Z,17.63
2023-04-28T19:26:49.455Z,17.60
2023-04-28T19:29:52.449Z,16.52
2023-04-28T19:32:55.359Z,20.20
2023-04-28T19:35:59.969Z,23.75
2023-04-28T19:39:03.243Z,19.13
2023-04-28T19:42:06.056Z,24.30
2023-04-28T19:45:10.111Z,17.80
2023-04-28T19:48:14.104Z,20.48
2023-04-28T19:51:17.009Z,19.30
2023-04-28T19:54:20.047Z,19.93
2023-04-28T19:57:23.611Z,20.53
2023-04-28T20:00:27.178Z,17.35
2023-04-28T20:03:30.239Z,22.95
2023-04-28T20:06:33.112Z,18.10
2023-04-28T20:09:37.375Z,21.40
2023-04-28T20:12:41.315Z,24.17
2023-04-28T20:15:44.226Z,21.60
2023-04-28T20:18:47.305Z,17.50
2023-04-28T20:21:51.253Z,20.08
2023-04-28T20:24:54.119Z,24.37
2023-04-28T20:27:57.242Z,21.47
2023-04-28T20:30:59.828Z,24.63
2023-04-28T20:34:03.438Z,24.00
2023-04-28T20:37:09.088Z,21.88
2023-04-28T20:40:12.720Z,26.67
2023-04-28T20:43:15.310Z,24.07
2023-04-28T20:46:18.651Z,25.38
2023-04-28T20:49:21.440Z,25.58
2023-04-28T20:52:23.970Z,21.00
2023-04-28T20:55:26.790Z,23.60
2023-04-28T20:58:30.911Z,20.83
2023-04-28T21:01:33.500Z,22.70
2023-04-28T21:04:36.002Z,19.65
2023-04-28T21:07:38.448Z,20.67
2023-04-28T21:10:41.369Z,14.80
2023-04-28T21:13:45.382Z,15.73
2023-04-28T21:16:47.923Z,17.30
2023-04-28T21:19:50.792Z,20.95
2023-04-28T21:22:53.638Z,18.63
2023-04-28T21:25:56.428Z,17.27
2023-04-28T21:28:59.200Z,16.77
2023-04-28T21:32:02.345Z,15.85
2023-04-28T21:35:05.396Z,15.90
2023-04-28T21:38:08.477Z,10.23
2023-04-28T21:41:12.580Z,12.53
2023-04-28T21:44:15.694Z,12.93
2023-04-28T21:47:18.180Z,12.95
2023-04-28T21:50:20.646Z,11.93
2023-04-28T21:53:23.635Z,14.20
2023-04-28T21:56:26.272Z,16.73
2023-04-28T21:59:28.999Z,10.80
2023-04-28T22:02:31.551Z,11.75
2023-04-28T22:05:34.630Z,13.48
2023-04-28T22:08:37.473Z,12.20
2023-04-28T22:11:40.162Z,14.83
2023-04-28T22:14:42.889Z,13.63
2023-04-28T22:17:45.516Z,11.50
2023-04-28T22:20:50.127Z,12.07
2023-04-28T22:23:52.659Z,13.38
2023-04-28T22:27:03.950Z,13.17
2023-04-28T22:30:08.530Z,10.77
2023-04-28T22:33:11.094Z,11.43
2023-04-28T22:36:13.598Z,19.02
2023-04-28T22:39:16.174Z,11.00
2023-04-28T22:42:18.705Z,9.17
2023-04-28T22:45:21.278Z,9.73
2023-04-28T22:48:24.036Z,12.90
2023-04-28T22:51:27.236Z,9.00
2023-04-28T22:54:30.304Z,11.80
2023-04-28T22:57:32.808Z,10.23
2023-04-28T23:00:35.913Z,11.00
2023-04-28T23:03:38.833Z,8.18
2023-04-28T23:06:41.581Z,13.23
2023-04-28T23:09:44.079Z,10.90
2023-04-28T23:12:46.749Z,8.60
2023-04-28T23:15:49.340Z,9.70
2023-04-28T23:18:51.848Z,8.23
2023-04-28T23:21:54.500Z,9.80
2023-04-28T23:24:57.388Z,8.38
2023-04-28T23:27:59.817Z,12.43
2023-04-28T23:31:02.407Z,11.90
2023-04-28T23:34:08.693Z,17.48
2023-04-28T23:37:11.141Z,12.48
2023-04-28T23:40:13.963Z,17.13
2023-04-28T23:43:17.835Z,12.57
2023-04-28T23:46:20.502Z,10.70
2023-04-28T23:49:23.804Z,11.13
2023-04-28T23:52:27.120Z,8.75
2023-04-28T23:55:29.966Z,10.55
2023-04-28T23:58:32.608Z,9.60
